sensor_id;sensor_type;location;lat;lon;timestamp;temperature;humidity
19110;DHT22;9687;50.836;12.060;2023-03-05T00:00:26;6.90;77.40
19110;DHT22;9687;50.836;12.060;2023-03-05T00:02:58;6.90;77.40
19110;DHT22;9687;50.836;12.060;2023-03-05T00:05:31;6.90;77.50
19110;DHT22;9687;50.836;12.060;2023-03-05T00:08:04;6.90;77.40
19110;DHT22;9687;50.836;12.060;2023-03-05T00:10:34;6.90;77.50
19110;DHT22;9687;50.836;12.060;2023-03-05T00:13:05;6.90;77.40
19110;DHT22;9687;50.836;12.060;2023-03-05T00:15:40;6.90;77.40
19110;DHT22;9687;50.836;12.060;2023-03-05T00:18:18;6.90;77.10
19110;DHT22;9687;50.836;12.060;2023-03-05T00:20:52;6.80;76.90
19110;DHT22;9687;50.836;12.060;2023-03-05T00:23:25;6.80;76.90
19110;DHT22;9687;50.836;12.060;2023-03-05T00:25:55;6.80;76.80
19110;DHT22;9687;50.836;12.060;2023-03-05T00:28:29;6.80;76.80
19110;DHT22;9687;50.836;12.060;2023-03-05T00:31:04;6.90;76.60
19110;DHT22;9687;50.836;12.060;2023-03-05T00:33:42;6.80;76.30
19110;DHT22;9687;50.836;12.060;2023-03-05T00:36:15;6.80;76.10
19110;DHT22;9687;50.836;12.060;2023-03-05T00:38:57;6.80;76.10
19110;DHT22;9687;50.836;12.060;2023-03-05T00:41:31;6.80;76.10
19110;DHT22;9687;50.836;12.060;2023-03-05T00:44:08;6.80;76.10
19110;DHT22;9687;50.836;12.060;2023-03-05T00:46:40;6.80;76.00
19110;DHT22;9687;50.836;12.060;2023-03-05T00:49:12;6.80;76.00
19110;DHT22;9687;50.836;12.060;2023-03-05T00:51:46;6.80;76.00
19110;DHT22;9687;50.836;12.060;2023-03-05T00:54:18;6.90;76.00
19110;DHT22;9687;50.836;12.060;2023-03-05T00:56:50;6.80;75.90
19110;DHT22;9687;50.836;12.060;2023-03-05T00:59:27;6.80;75.80
19110;DHT22;9687;50.836;12.060;2023-03-05T01:01:58;6.80;75.70
19110;DHT22;9687;50.836;12.060;2023-03-05T01:04:36;6.80;75.60
19110;DHT22;9687;50.836;12.060;2023-03-05T01:07:07;6.80;75.60
19110;DHT22;9687;50.836;12.060;2023-03-05T01:09:38;6.80;75.60
19110;DHT22;9687;50.836;12.060;2023-03-05T01:12:09;6.80;75.70
19110;DHT22;9687;50.836;12.060;2023-03-05T01:14:43;6.80;75.70
19110;DHT22;9687;50.836;12.060;2023-03-05T01:17:17;6.80;75.70
19110;DHT22;9687;50.836;12.060;2023-03-05T01:19:51;6.80;75.70
19110;DHT22;9687;50.836;12.060;2023-03-05T01:22:23;6.80;75.60
19110;DHT22;9687;50.836;12.060;2023-03-05T01:24:55;6.80;75.70
19110;DHT22;9687;50.836;12.060;2023-03-05T01:27:28;6.80;75.70
19110;DHT22;9687;50.836;12.060;2023-03-05T01:30:03;6.80;75.70
19110;DHT22;9687;50.836;12.060;2023-03-05T01:32:38;6.80;75.80
19110;DHT22;9687;50.836;12.060;2023-03-05T01:35:14;6.80;75.80
19110;DHT22;9687;50.836;12.060;2023-03-05T01:37:43;6.80;75.90
19110;DHT22;9687;50.836;12.060;2023-03-05T01:40:14;6.70;75.70
19110;DHT22;9687;50.836;12.060;2023-03-05T01:42:47;6.70;75.80
19110;DHT22;9687;50.836;12.060;2023-03-05T01:45:21;6.70;75.80
19110;DHT22;9687;50.836;12.060;2023-03-05T01:48:00;6.70;75.80
19110;DHT22;9687;50.836;12.060;2023-03-05T01:50:30;6.70;76.00
19110;DHT22;9687;50.836;12.060;2023-03-05T01:53:03;6.70;76.00
19110;DHT22;9687;50.836;12.060;2023-03-05T01:55:38;6.70;76.10
19110;DHT22;9687;50.836;12.060;2023-03-05T01:58:12;6.70;76.30
19110;DHT22;9687;50.836;12.060;2023-03-05T02:00:44;6.70;76.20
19110;DHT22;9687;50.836;12.060;2023-03-05T02:03:20;6.70;77.10
19110;DHT22;9687;50.836;12.060;2023-03-05T02:05:54;6.70;76.40
19110;DHT22;9687;50.836;12.060;2023-03-05T02:08:27;6.70;76.50
19110;DHT22;9687;50.836;12.060;2023-03-05T02:11:02;6.60;76.50
19110;DHT22;9687;50.836;12.060;2023-03-05T02:13:32;6.60;76.50
19110;DHT22;9687;50.836;12.060;2023-03-05T02:16:12;6.60;76.60
19110;DHT22;9687;50.836;12.060;2023-03-05T02:18:45;6.60;76.60
19110;DHT22;9687;50.836;12.060;2023-03-05T02:21:28;6.60;76.60
19110;DHT22;9687;50.836;12.060;2023-03-05T02:24:12;6.60;76.50
19110;DHT22;9687;50.836;12.060;2023-03-05T02:26:45;6.60;76.40
19110;DHT22;9687;50.836;12.060;2023-03-05T02:29:17;6.60;76.40
19110;DHT22;9687;50.836;12.060;2023-03-05T02:31:53;6.60;76.40
19110;DHT22;9687;50.836;12.060;2023-03-05T02:34:22;6.50;76.40
19110;DHT22;9687;50.836;12.060;2023-03-05T02:36:57;6.50;76.30
19110;DHT22;9687;50.836;12.060;2023-03-05T02:39:29;6.50;75.60
19110;DHT22;9687;50.836;12.060;2023-03-05T02:41:57;6.50;76.30
19110;DHT22;9687;50.836;12.060;2023-03-05T02:44:26;6.50;76.30
19110;DHT22;9687;50.836;12.060;2023-03-05T02:46:57;6.50;76.30
19110;DHT22;9687;50.836;12.060;2023-03-05T02:49:27;6.50;76.30
19110;DHT22;9687;50.836;12.060;2023-03-05T02:52:03;6.40;76.20
19110;DHT22;9687;50.836;12.060;2023-03-05T02:54:37;6.40;76.20
19110;DHT22;9687;50.836;12.060;2023-03-05T02:57:10;6.50;76.20
19110;DHT22;9687;50.836;12.060;2023-03-05T02:59:39;6.40;75.90
19110;DHT22;9687;50.836;12.060;2023-03-05T03:02:13;6.40;75.70
19110;DHT22;9687;50.836;12.060;2023-03-05T03:04:44;6.40;75.60
19110;DHT22;9687;50.836;12.060;2023-03-05T03:07:16;6.40;75.50
19110;DHT22;9687;50.836;12.060;2023-03-05T03:09:54;6.40;75.30
19110;DHT22;9687;50.836;12.060;2023-03-05T03:12:27;6.40;75.10
19110;DHT22;9687;50.836;12.060;2023-03-05T03:15:05;6.50;75.70
19110;DHT22;9687;50.836;12.060;2023-03-05T03:17:36;6.40;74.80
19110;DHT22;9687;50.836;12.060;2023-03-05T03:20:14;6.40;74.90
19110;DHT22;9687;50.836;12.060;2023-03-05T03:22:47;6.40;75.00
19110;DHT22;9687;50.836;12.060;2023-03-05T03:25:24;6.40;74.90
19110;DHT22;9687;50.836;12.060;2023-03-05T03:28:02;6.40;75.70
19110;DHT22;9687;50.836;12.060;2023-03-05T03:30:35;6.40;74.90
19110;DHT22;9687;50.836;12.060;2023-03-05T03:33:09;6.40;74.80
19110;DHT22;9687;50.836;12.060;2023-03-05T03:35:38;6.40;74.90
19110;DHT22;9687;50.836;12.060;2023-03-05T03:38:13;6.40;74.90
19110;DHT22;9687;50.836;12.060;2023-03-05T03:40:49;6.40;74.80
19110;DHT22;9687;50.836;12.060;2023-03-05T03:43:23;6.40;74.80
19110;DHT22;9687;50.836;12.060;2023-03-05T03:46:05;6.40;74.80
19110;DHT22;9687;50.836;12.060;2023-03-05T03:48:38;6.40;74.80
19110;DHT22;9687;50.836;12.060;2023-03-05T03:51:14;6.40;74.80
19110;DHT22;9687;50.836;12.060;2023-03-05T03:53:45;6.40;74.70
19110;DHT22;9687;50.836;12.060;2023-03-05T03:56:18;6.40;74.60
19110;DHT22;9687;50.836;12.060;2023-03-05T03:58:51;6.40;74.60
19110;DHT22;9687;50.836;12.060;2023-03-05T04:01:25;6.40;74.40
19110;DHT22;9687;50.836;12.060;2023-03-05T04:03:54;6.30;74.20
19110;DHT22;9687;50.836;12.060;2023-03-05T04:06:31;6.30;74.20
19110;DHT22;9687;50.836;12.060;2023-03-05T04:09:07;6.30;74.00
19110;DHT22;9687;50.836;12.060;2023-03-05T04:11:40;6.30;74.10
19110;DHT22;9687;50.836;12.060;2023-03-05T04:14:11;6.30;74.20
19110;DHT22;9687;50.836;12.060;2023-03-05T04:16:42;6.30;74.10
19110;DHT22;9687;50.836;12.060;2023-03-05T04:19:14;6.30;74.20
19110;DHT22;9687;50.836;12.060;2023-03-05T04:21:43;6.30;74.20
19110;DHT22;9687;50.836;12.060;2023-03-05T04:24:15;6.30;74.20
19110;DHT22;9687;50.836;12.060;2023-03-05T04:26:48;6.30;74.20
19110;DHT22;9687;50.836;12.060;2023-03-05T04:29:19;6.30;74.30
19110;DHT22;9687;50.836;12.060;2023-03-05T04:31:51;6.30;74.30
19110;DHT22;9687;50.836;12.060;2023-03-05T04:34:19;6.30;74.80
19110;DHT22;9687;50.836;12.060;2023-03-05T04:36:50;6.30;74.50
19110;DHT22;9687;50.836;12.060;2023-03-05T04:39:25;6.30;74.70
19110;DHT22;9687;50.836;12.060;2023-03-05T04:41:57;6.30;74.70
19110;DHT22;9687;50.836;12.060;2023-03-05T04:44:27;6.30;74.80
19110;DHT22;9687;50.836;12.060;2023-03-05T04:47:02;6.30;74.90
19110;DHT22;9687;50.836;12.060;2023-03-05T04:49:32;6.30;75.00
19110;DHT22;9687;50.836;12.060;2023-03-05T04:52:12;6.30;75.10
19110;DHT22;9687;50.836;12.060;2023-03-05T04:54:47;6.30;75.30
19110;DHT22;9687;50.836;12.060;2023-03-05T04:57:18;6.30;75.30
19110;DHT22;9687;50.836;12.060;2023-03-05T04:59:54;6.20;75.40
19110;DHT22;9687;50.836;12.060;2023-03-05T05:02:28;6.30;75.60
19110;DHT22;9687;50.836;12.060;2023-03-05T05:04:59;6.20;75.50
19110;DHT22;9687;50.836;12.060;2023-03-05T05:07:30;6.20;75.50
19110;DHT22;9687;50.836;12.060;2023-03-05T05:10:08;6.20;75.60
19110;DHT22;9687;50.836;12.060;2023-03-05T05:12:40;6.20;75.60
19110;DHT22;9687;50.836;12.060;2023-03-05T05:15:13;6.20;75.60
19110;DHT22;9687;50.836;12.060;2023-03-05T05:17:47;6.20;75.70
19110;DHT22;9687;50.836;12.060;2023-03-05T05:20:18;6.20;75.80
19110;DHT22;9687;50.836;12.060;2023-03-05T05:22:48;6.20;75.80
19110;DHT22;9687;50.836;12.060;2023-03-05T05:25:19;6.20;75.80
19110;DHT22;9687;50.836;12.060;2023-03-05T05:27:52;6.20;75.90
19110;DHT22;9687;50.836;12.060;2023-03-05T05:30:24;6.20;75.90
19110;DHT22;9687;50.836;12.060;2023-03-05T05:32:57;6.20;75.90
19110;DHT22;9687;50.836;12.060;2023-03-05T05:35:33;6.20;75.90
19110;DHT22;9687;50.836;12.060;2023-03-05T05:38:07;6.20;76.00
19110;DHT22;9687;50.836;12.060;2023-03-05T05:40:42;6.20;75.90
19110;DHT22;9687;50.836;12.060;2023-03-05T05:43:17;6.20;75.80
19110;DHT22;9687;50.836;12.060;2023-03-05T05:45:48;6.20;75.80
19110;DHT22;9687;50.836;12.060;2023-03-05T05:48:23;6.20;75.80
19110;DHT22;9687;50.836;12.060;2023-03-05T05:50:58;6.10;75.50
19110;DHT22;9687;50.836;12.060;2023-03-05T05:53:30;6.20;75.50
19110;DHT22;9687;50.836;12.060;2023-03-05T05:56:01;6.20;75.50
19110;DHT22;9687;50.836;12.060;2023-03-05T05:58:32;6.20;75.50
19110;DHT22;9687;50.836;12.060;2023-03-05T06:01:02;6.10;75.20
19110;DHT22;9687;50.836;12.060;2023-03-05T06:03:33;6.10;75.00
19110;DHT22;9687;50.836;12.060;2023-03-05T06:06:07;6.10;74.80
19110;DHT22;9687;50.836;12.060;2023-03-05T06:08:37;6.10;74.80
19110;DHT22;9687;50.836;12.060;2023-03-05T06:11:14;6.10;74.90
19110;DHT22;9687;50.836;12.060;2023-03-05T06:13:46;6.10;74.90
19110;DHT22;9687;50.836;12.060;2023-03-05T06:16:18;6.10;74.90
19110;DHT22;9687;50.836;12.060;2023-03-05T06:18:52;6.10;74.80
19110;DHT22;9687;50.836;12.060;2023-03-05T06:21:23;6.10;74.80
19110;DHT22;9687;50.836;12.060;2023-03-05T06:23:55;6.10;74.70
19110;DHT22;9687;50.836;12.060;2023-03-05T06:26:30;6.20;74.70
19110;DHT22;9687;50.836;12.060;2023-03-05T06:29:03;6.10;74.50
19110;DHT22;9687;50.836;12.060;2023-03-05T06:31:34;6.20;74.60
19110;DHT22;9687;50.836;12.060;2023-03-05T06:34:04;6.20;74.60
19110;DHT22;9687;50.836;12.060;2023-03-05T06:36:37;6.20;74.60
19110;DHT22;9687;50.836;12.060;2023-03-05T06:39:08;6.20;74.60
19110;DHT22;9687;50.836;12.060;2023-03-05T06:41:48;6.20;74.60
19110;DHT22;9687;50.836;12.060;2023-03-05T06:44:22;6.20;74.60
19110;DHT22;9687;50.836;12.060;2023-03-05T06:47:03;6.20;74.40
19110;DHT22;9687;50.836;12.060;2023-03-05T06:49:39;6.20;74.40
19110;DHT22;9687;50.836;12.060;2023-03-05T06:52:19;6.20;74.20
19110;DHT22;9687;50.836;12.060;2023-03-05T06:54:49;6.20;74.20
19110;DHT22;9687;50.836;12.060;2023-03-05T06:57:23;6.20;74.20
19110;DHT22;9687;50.836;12.060;2023-03-05T06:59:57;6.20;74.00
19110;DHT22;9687;50.836;12.060;2023-03-05T07:02:30;6.30;74.00
19110;DHT22;9687;50.836;12.060;2023-03-05T07:05:06;6.20;73.80
19110;DHT22;9687;50.836;12.060;2023-03-05T07:07:35;6.20;73.80
19110;DHT22;9687;50.836;12.060;2023-03-05T07:10:07;6.20;73.80
19110;DHT22;9687;50.836;12.060;2023-03-05T07:12:41;6.20;73.70
19110;DHT22;9687;50.836;12.060;2023-03-05T07:15:14;6.30;73.80
19110;DHT22;9687;50.836;12.060;2023-03-05T07:17:45;6.30;73.60
19110;DHT22;9687;50.836;12.060;2023-03-05T07:20:16;6.30;73.60
19110;DHT22;9687;50.836;12.060;2023-03-05T07:22:46;6.30;73.20
19110;DHT22;9687;50.836;12.060;2023-03-05T07:25:21;6.40;73.10
19110;DHT22;9687;50.836;12.060;2023-03-05T07:27:52;6.30;73.00
19110;DHT22;9687;50.836;12.060;2023-03-05T07:30:25;6.30;72.90
19110;DHT22;9687;50.836;12.060;2023-03-05T07:32:56;6.30;72.80
19110;DHT22;9687;50.836;12.060;2023-03-05T07:35:28;6.30;72.80
19110;DHT22;9687;50.836;12.060;2023-03-05T07:38:02;6.30;72.80
19110;DHT22;9687;50.836;12.060;2023-03-05T07:40:34;6.30;72.80
19110;DHT22;9687;50.836;12.060;2023-03-05T07:43:06;6.50;72.70
19110;DHT22;9687;50.836;12.060;2023-03-05T07:45:43;6.40;72.60
19110;DHT22;9687;50.836;12.060;2023-03-05T07:48:18;6.40;72.60
19110;DHT22;9687;50.836;12.060;2023-03-05T07:50:50;6.40;72.60
19110;DHT22;9687;50.836;12.060;2023-03-05T07:53:30;6.50;72.50
19110;DHT22;9687;50.836;12.060;2023-03-05T07:56:08;6.50;72.50
19110;DHT22;9687;50.836;12.060;2023-03-05T07:58:43;6.50;72.20
19110;DHT22;9687;50.836;12.060;2023-03-05T08:01:21;6.60;72.10
19110;DHT22;9687;50.836;12.060;2023-03-05T08:03:49;6.50;71.70
19110;DHT22;9687;50.836;12.060;2023-03-05T08:06:19;6.50;71.80
19110;DHT22;9687;50.836;12.060;2023-03-05T08:08:50;6.50;71.90
19110;DHT22;9687;50.836;12.060;2023-03-05T08:11:28;6.50;72.00
19110;DHT22;9687;50.836;12.060;2023-03-05T08:14:03;6.50;71.90
19110;DHT22;9687;50.836;12.060;2023-03-05T08:16:40;6.50;71.80
19110;DHT22;9687;50.836;12.060;2023-03-05T08:19:17;6.50;71.80
19110;DHT22;9687;50.836;12.060;2023-03-05T08:21:52;6.50;71.70
19110;DHT22;9687;50.836;12.060;2023-03-05T08:24:28;6.50;71.80
19110;DHT22;9687;50.836;12.060;2023-03-05T08:27:04;6.50;71.90
19110;DHT22;9687;50.836;12.060;2023-03-05T08:29:40;6.50;72.00
19110;DHT22;9687;50.836;12.060;2023-03-05T08:32:17;6.50;72.00
19110;DHT22;9687;50.836;12.060;2023-03-05T08:34:54;6.60;72.20
19110;DHT22;9687;50.836;12.060;2023-03-05T08:37:23;6.50;72.10
19110;DHT22;9687;50.836;12.060;2023-03-05T08:40:04;6.60;72.30
19110;DHT22;9687;50.836;12.060;2023-03-05T08:42:33;6.60;72.40
19110;DHT22;9687;50.836;12.060;2023-03-05T08:45:04;6.60;72.40
19110;DHT22;9687;50.836;12.060;2023-03-05T08:47:37;6.50;72.40
19110;DHT22;9687;50.836;12.060;2023-03-05T08:50:08;6.60;72.60
19110;DHT22;9687;50.836;12.060;2023-03-05T08:52:46;6.60;72.50
19110;DHT22;9687;50.836;12.060;2023-03-05T08:55:26;6.60;72.60
19110;DHT22;9687;50.836;12.060;2023-03-05T08:57:55;6.70;72.80
19110;DHT22;9687;50.836;12.060;2023-03-05T09:00:30;6.70;72.80
19110;DHT22;9687;50.836;12.060;2023-03-05T09:03:00;6.70;72.70
19110;DHT22;9687;50.836;12.060;2023-03-05T09:05:37;6.70;72.60
19110;DHT22;9687;50.836;12.060;2023-03-05T09:08:06;6.70;72.50
19110;DHT22;9687;50.836;12.060;2023-03-05T09:10:36;6.70;72.50
19110;DHT22;9687;50.836;12.060;2023-03-05T09:13:06;6.80;72.80
19110;DHT22;9687;50.836;12.060;2023-03-05T09:15:40;6.70;72.80
19110;DHT22;9687;50.836;12.060;2023-03-05T09:18:16;6.70;72.80
19110;DHT22;9687;50.836;12.060;2023-03-05T09:20:50;6.70;72.80
19110;DHT22;9687;50.836;12.060;2023-03-05T09:23:24;6.70;72.80
19110;DHT22;9687;50.836;12.060;2023-03-05T09:25:56;6.70;72.80
19110;DHT22;9687;50.836;12.060;2023-03-05T09:28:27;6.70;72.80
19110;DHT22;9687;50.836;12.060;2023-03-05T09:31:00;6.70;72.80
19110;DHT22;9687;50.836;12.060;2023-03-05T09:33:38;6.70;72.70
19110;DHT22;9687;50.836;12.060;2023-03-05T09:36:15;6.70;72.80
19110;DHT22;9687;50.836;12.060;2023-03-05T09:38:45;6.70;72.90
19110;DHT22;9687;50.836;12.060;2023-03-05T09:41:24;6.70;73.00
19110;DHT22;9687;50.836;12.060;2023-03-05T09:43:58;6.70;73.10
19110;DHT22;9687;50.836;12.060;2023-03-05T09:46:36;6.70;73.20
19110;DHT22;9687;50.836;12.060;2023-03-05T09:49:13;6.70;73.20
19110;DHT22;9687;50.836;12.060;2023-03-05T09:51:49;6.80;73.30
19110;DHT22;9687;50.836;12.060;2023-03-05T09:54:22;6.80;73.50
19110;DHT22;9687;50.836;12.060;2023-03-05T09:56:59;6.80;73.60
19110;DHT22;9687;50.836;12.060;2023-03-05T09:59:41;6.80;73.80
19110;DHT22;9687;50.836;12.060;2023-03-05T10:02:16;6.70;74.00
19110;DHT22;9687;50.836;12.060;2023-03-05T10:04:47;6.80;74.20
19110;DHT22;9687;50.836;12.060;2023-03-05T10:07:24;6.80;74.20
19110;DHT22;9687;50.836;12.060;2023-03-05T10:09:55;6.80;74.40
19110;DHT22;9687;50.836;12.060;2023-03-05T10:12:33;6.80;74.40
19110;DHT22;9687;50.836;12.060;2023-03-05T10:15:08;6.80;74.20
19110;DHT22;9687;50.836;12.060;2023-03-05T10:20:36;6.90;74.40
19110;DHT22;9687;50.836;12.060;2023-03-05T10:23:16;7.00;74.20
19110;DHT22;9687;50.836;12.060;2023-03-05T10:25:57;7.10;74.10
19110;DHT22;9687;50.836;12.060;2023-03-05T10:28:37;7.20;73.70
19110;DHT22;9687;50.836;12.060;2023-03-05T10:34:03;7.30;73.60
19110;DHT22;9687;50.836;12.060;2023-03-05T10:36:48;7.40;73.00
19110;DHT22;9687;50.836;12.060;2023-03-05T10:39:50;7.40;72.50
19110;DHT22;9687;50.836;12.060;2023-03-05T10:42:22;7.40;72.30
19110;DHT22;9687;50.836;12.060;2023-03-05T10:45:00;7.20;71.90
19110;DHT22;9687;50.836;12.060;2023-03-05T10:47:35;7.40;72.10
19110;DHT22;9687;50.836;12.060;2023-03-05T10:50:13;7.40;72.10
19110;DHT22;9687;50.836;12.060;2023-03-05T10:52:47;7.40;71.90
19110;DHT22;9687;50.836;12.060;2023-03-05T10:55:33;7.40;71.90
19110;DHT22;9687;50.836;12.060;2023-03-05T10:58:11;7.40;71.50
19110;DHT22;9687;50.836;12.060;2023-03-05T11:00:58;7.40;71.60
19110;DHT22;9687;50.836;12.060;2023-03-05T11:06:31;7.50;71.80
19110;DHT22;9687;50.836;12.060;2023-03-05T11:09:22;7.50;72.10
19110;DHT22;9687;50.836;12.060;2023-03-05T11:15:00;7.50;71.00
19110;DHT22;9687;50.836;12.060;2023-03-05T11:17:37;7.50;71.20
19110;DHT22;9687;50.836;12.060;2023-03-05T11:20:27;7.50;71.20
19110;DHT22;9687;50.836;12.060;2023-03-05T11:23:03;7.60;71.20
19110;DHT22;9687;50.836;12.060;2023-03-05T11:25:49;7.60;70.90
19110;DHT22;9687;50.836;12.060;2023-03-05T11:28:25;7.60;70.70
19110;DHT22;9687;50.836;12.060;2023-03-05T11:31:02;7.60;70.60
19110;DHT22;9687;50.836;12.060;2023-03-05T11:33:38;7.60;70.70
19110;DHT22;9687;50.836;12.060;2023-03-05T11:36:22;7.60;70.60
19110;DHT22;9687;50.836;12.060;2023-03-05T11:38:51;7.60;70.60
19110;DHT22;9687;50.836;12.060;2023-03-05T11:41:33;7.60;70.50
19110;DHT22;9687;50.836;12.060;2023-03-05T11:44:09;7.50;71.20
19110;DHT22;9687;50.836;12.060;2023-03-05T11:46:48;7.50;70.50
19110;DHT22;9687;50.836;12.060;2023-03-05T11:49:24;7.50;70.60
19110;DHT22;9687;50.836;12.060;2023-03-05T11:51:59;7.50;70.60
19110;DHT22;9687;50.836;12.060;2023-03-05T11:54:46;7.50;70.60
19110;DHT22;9687;50.836;12.060;2023-03-05T11:57:21;7.50;70.60
19110;DHT22;9687;50.836;12.060;2023-03-05T11:59:57;7.50;70.60
19110;DHT22;9687;50.836;12.060;2023-03-05T12:02:39;7.40;70.30
19110;DHT22;9687;50.836;12.060;2023-03-05T12:05:17;7.40;70.40
19110;DHT22;9687;50.836;12.060;2023-03-05T12:07:49;7.50;70.50
19110;DHT22;9687;50.836;12.060;2023-03-05T12:10:22;7.50;70.60
19110;DHT22;9687;50.836;12.060;2023-03-05T12:12:54;7.50;70.30
19110;DHT22;9687;50.836;12.060;2023-03-05T12:15:44;7.50;70.30
19110;DHT22;9687;50.836;12.060;2023-03-05T12:18:21;7.50;70.20
19110;DHT22;9687;50.836;12.060;2023-03-05T12:21:03;7.50;70.10
19110;DHT22;9687;50.836;12.060;2023-03-05T12:23:44;7.50;70.20
19110;DHT22;9687;50.836;12.060;2023-03-05T12:29:28;7.50;71.00
19110;DHT22;9687;50.836;12.060;2023-03-05T12:34:57;7.40;70.20
19110;DHT22;9687;50.836;12.060;2023-03-05T12:40:34;7.40;70.20
19110;DHT22;9687;50.836;12.060;2023-03-05T12:46:23;7.30;70.10
19110;DHT22;9687;50.836;12.060;2023-03-05T12:48:59;7.30;70.20
19110;DHT22;9687;50.836;12.060;2023-03-05T12:51:35;7.30;70.30
19110;DHT22;9687;50.836;12.060;2023-03-05T12:54:21;7.30;70.40
19110;DHT22;9687;50.836;12.060;2023-03-05T12:56:51;7.30;70.40
19110;DHT22;9687;50.836;12.060;2023-03-05T12:59:31;7.20;70.30
19110;DHT22;9687;50.836;12.060;2023-03-05T13:02:20;7.20;70.40
19110;DHT22;9687;50.836;12.060;2023-03-05T13:05:03;7.20;70.40
19110;DHT22;9687;50.836;12.060;2023-03-05T13:07:44;7.20;70.50
19110;DHT22;9687;50.836;12.060;2023-03-05T13:10:22;7.20;70.70
19110;DHT22;9687;50.836;12.060;2023-03-05T13:13:10;7.20;70.80
19110;DHT22;9687;50.836;12.060;2023-03-05T13:15:46;7.20;70.90
19110;DHT22;9687;50.836;12.060;2023-03-05T13:18:22;7.20;70.90
19110;DHT22;9687;50.836;12.060;2023-03-05T13:21:03;7.20;71.00
19110;DHT22;9687;50.836;12.060;2023-03-05T13:23:45;7.20;71.00
19110;DHT22;9687;50.836;12.060;2023-03-05T13:26:20;7.20;71.10
19110;DHT22;9687;50.836;12.060;2023-03-05T13:29:02;7.20;71.20
19110;DHT22;9687;50.836;12.060;2023-03-05T13:31:41;7.20;71.30
19110;DHT22;9687;50.836;12.060;2023-03-05T13:34:22;7.20;71.50
19110;DHT22;9687;50.836;12.060;2023-03-05T13:37:04;7.20;72.00
19110;DHT22;9687;50.836;12.060;2023-03-05T13:39:51;7.20;72.50
19110;DHT22;9687;50.836;12.060;2023-03-05T13:42:28;7.10;72.80
19110;DHT22;9687;50.836;12.060;2023-03-05T13:45:04;7.10;73.30
19110;DHT22;9687;50.836;12.060;2023-03-05T13:47:38;7.10;73.60
19110;DHT22;9687;50.836;12.060;2023-03-05T13:50:20;7.10;73.60
19110;DHT22;9687;50.836;12.060;2023-03-05T13:53:14;7.00;73.50
19110;DHT22;9687;50.836;12.060;2023-03-05T13:55:59;7.00;73.90
19110;DHT22;9687;50.836;12.060;2023-03-05T13:58:45;7.00;74.10
19110;DHT22;9687;50.836;12.060;2023-03-05T14:01:25;7.00;74.40
19110;DHT22;9687;50.836;12.060;2023-03-05T14:04:05;7.00;74.60
19110;DHT22;9687;50.836;12.060;2023-03-05T14:06:46;7.00;74.60
19110;DHT22;9687;50.836;12.060;2023-03-05T14:09:25;7.00;74.70
19110;DHT22;9687;50.836;12.060;2023-03-05T14:12:03;7.10;75.00
19110;DHT22;9687;50.836;12.060;2023-03-05T14:14:38;7.00;74.90
19110;DHT22;9687;50.836;12.060;2023-03-05T14:17:19;7.00;74.80
19110;DHT22;9687;50.836;12.060;2023-03-05T14:20:06;7.00;74.90
19110;DHT22;9687;50.836;12.060;2023-03-05T14:22:42;7.00;74.80
19110;DHT22;9687;50.836;12.060;2023-03-05T14:25:27;7.10;75.00
19110;DHT22;9687;50.836;12.060;2023-03-05T14:27:56;7.10;75.00
19110;DHT22;9687;50.836;12.060;2023-03-05T14:30:28;7.10;74.90
19110;DHT22;9687;50.836;12.060;2023-03-05T14:33:09;7.10;74.90
19110;DHT22;9687;50.836;12.060;2023-03-05T14:35:38;7.10;74.80
19110;DHT22;9687;50.836;12.060;2023-03-05T14:38:25;7.10;74.70
19110;DHT22;9687;50.836;12.060;2023-03-05T14:41:17;7.20;74.80
19110;DHT22;9687;50.836;12.060;2023-03-05T14:43:57;7.20;74.80
19110;DHT22;9687;50.836;12.060;2023-03-05T14:46:33;7.20;74.80
19110;DHT22;9687;50.836;12.060;2023-03-05T14:49:08;7.20;74.60
19110;DHT22;9687;50.836;12.060;2023-03-05T14:51:44;7.20;74.70
19110;DHT22;9687;50.836;12.060;2023-03-05T14:54:23;7.20;74.70
19110;DHT22;9687;50.836;12.060;2023-03-05T14:57:04;7.20;74.80
19110;DHT22;9687;50.836;12.060;2023-03-05T14:59:37;7.20;74.80
19110;DHT22;9687;50.836;12.060;2023-03-05T15:02:14;7.20;74.80
19110;DHT22;9687;50.836;12.060;2023-03-05T15:04:57;7.20;74.90
19110;DHT22;9687;50.836;12.060;2023-03-05T15:07:34;7.20;74.90
19110;DHT22;9687;50.836;12.060;2023-03-05T15:10:08;7.20;74.90
19110;DHT22;9687;50.836;12.060;2023-03-05T15:12:46;7.20;74.90
19110;DHT22;9687;50.836;12.060;2023-03-05T15:15:23;7.20;75.50
19110;DHT22;9687;50.836;12.060;2023-03-05T15:17:59;7.20;74.90
19110;DHT22;9687;50.836;12.060;2023-03-05T15:20:37;7.20;74.80
19110;DHT22;9687;50.836;12.060;2023-03-05T15:23:13;7.20;74.80
19110;DHT22;9687;50.836;12.060;2023-03-05T15:25:52;7.20;74.80
19110;DHT22;9687;50.836;12.060;2023-03-05T15:28:30;7.20;74.70
19110;DHT22;9687;50.836;12.060;2023-03-05T15:31:03;7.20;74.60
19110;DHT22;9687;50.836;12.060;2023-03-05T15:33:44;7.20;74.50
19110;DHT22;9687;50.836;12.060;2023-03-05T15:36:17;7.20;74.50
19110;DHT22;9687;50.836;12.060;2023-03-05T15:38:45;7.20;74.50
19110;DHT22;9687;50.836;12.060;2023-03-05T15:41:19;7.20;74.50
19110;DHT22;9687;50.836;12.060;2023-03-05T15:43:57;7.20;74.50
19110;DHT22;9687;50.836;12.060;2023-03-05T15:46:42;7.20;74.60
19110;DHT22;9687;50.836;12.060;2023-03-05T15:49:15;7.20;74.50
19110;DHT22;9687;50.836;12.060;2023-03-05T15:51:46;7.20;74.50
19110;DHT22;9687;50.836;12.060;2023-03-05T15:54:18;7.10;74.30
19110;DHT22;9687;50.836;12.060;2023-03-05T15:56:50;7.10;74.30
19110;DHT22;9687;50.836;12.060;2023-03-05T15:59:30;7.10;74.30
19110;DHT22;9687;50.836;12.060;2023-03-05T16:02:17;7.10;74.40
19110;DHT22;9687;50.836;12.060;2023-03-05T16:04:56;7.10;74.40
19110;DHT22;9687;50.836;12.060;2023-03-05T16:07:32;7.10;74.50
19110;DHT22;9687;50.836;12.060;2023-03-05T16:10:21;7.10;74.50
19110;DHT22;9687;50.836;12.060;2023-03-05T16:12:59;7.00;74.50
19110;DHT22;9687;50.836;12.060;2023-03-05T16:15:34;7.10;74.60
19110;DHT22;9687;50.836;12.060;2023-03-05T16:18:12;7.10;74.50
19110;DHT22;9687;50.836;12.060;2023-03-05T16:21:00;7.10;74.60
19110;DHT22;9687;50.836;12.060;2023-03-05T16:23:41;7.00;74.40
19110;DHT22;9687;50.836;12.060;2023-03-05T16:26:14;7.00;74.60
19110;DHT22;9687;50.836;12.060;2023-03-05T16:28:52;7.00;74.60
19110;DHT22;9687;50.836;12.060;2023-03-05T16:31:32;7.00;74.50
19110;DHT22;9687;50.836;12.060;2023-03-05T16:34:06;7.00;74.40
19110;DHT22;9687;50.836;12.060;2023-03-05T16:36:45;7.00;74.30
19110;DHT22;9687;50.836;12.060;2023-03-05T16:39:32;7.00;74.20
19110;DHT22;9687;50.836;12.060;2023-03-05T16:42:01;7.00;74.10
19110;DHT22;9687;50.836;12.060;2023-03-05T16:44:43;7.00;74.10
19110;DHT22;9687;50.836;12.060;2023-03-05T16:47:20;7.00;74.20
19110;DHT22;9687;50.836;12.060;2023-03-05T16:50:06;7.00;74.20
19110;DHT22;9687;50.836;12.060;2023-03-05T16:52:52;6.90;74.00
19110;DHT22;9687;50.836;12.060;2023-03-05T16:55:29;6.90;74.20
19110;DHT22;9687;50.836;12.060;2023-03-05T16:58:06;6.90;74.20
19110;DHT22;9687;50.836;12.060;2023-03-05T17:00:55;6.90;74.20